To NAV CANADA Home Page Login to a new session Search on AWWS site Feedback and Comments Disclaimer Vers la page française équivalente Tips FAQ What's new on the site To the Forecasts and Observations / NOTAM section To "File a Flight Plan" website Publications and other links Update of the User's profile FIC Telephone Numbers My Weather Data Folder Route Weather Data Regional Weather Data Local Weather Data To the Forecasts and Observations / NOTAM section
Request Generated 05/30/2015 at 18:10:25 UTC . Weather information available at that time is displayed.

METAR/TAF

MARYS HARBOUR/NL    (show WxCam)

SPECI CYMH 301804Z AUTO 14012G17KT 9SM FEW016 BKN022 OVC030 06/04
A2984 RMK SLP106=
METAR CYMH 301800Z AUTO 14010G17KT 9SM SCT022 OVC030 07/05 A2984 RMK
PRESFR SLP107=
SPECI CYMH 301734Z AUTO 15009KT 9SM SCT019 OVC034 05/03 A2986 RMK
PRESFR SLP112=
SPECI CYMH 301728Z AUTO 15010KT 9SM BKN017 OVC034 05/03 A2987 RMK
PRESFR SLP114=
METAR CYMH 301700Z AUTO 15010KT 9SM -RA BKN017 OVC039 05/04 A2988 RMK
PRESFR PCPN 0.8MM PAST HR SLP119=
SPECI CYMH 301639Z AUTO 16010G15KT 9SM -RA BKN017 BKN041 BKN090
OVC120 05/04 A2990 RMK PRESFR PCPN 0.8MM PAST HR SLP126=
SPECI CYMH 301636Z AUTO 16011KT 9SM -RA SCT017 BKN041 BKN090 OVC120
05/04 A2990 RMK PRESFR PCPN 0.8MM PAST HR SLP126=
SPECI CYMH 301622Z AUTO 16009KT 8SM -RA BKN017 BKN041 BKN095 OVC130
05/04 A2990 RMK PRESFR PCPN 0.5MM PAST HR SLP127=
SPECI CYMH 301617Z AUTO 15011KT 8SM -RA SCT017 BKN041 BKN075 OVC130
05/04 A2990 RMK PRESFR PCPN 0.5MM PAST HR SLP127=
METAR CYMH 301600Z AUTO 15009KT 9SM -RA BKN017 OVC041 05/03 A2992 RMK
PRESFR SLP132=

TAF AMD CYMH 301551Z 3015/3102 17012KT P6SM BKN030 OVC050 TEMPO
3015/3102 6SM -SHRA BR BKN020 OVC030
BECMG 3020/3022 22012KT
RMK FCST BASED ON AUTO OBS. NXT FCST BY 302000Z=
Your time UTC time
Weather data provided by Environment Canada and NAV CANADA